ADDS TAF Board (Experimental) INFO Settings
IDs:

KMCI - Kansas City Intl, MO, US

Issued at 0520 UTC 29 Jul 2015
Updated at: 0706 UTC 29 Jul 2015
Time0653Z 29/08Z 29/09Z 29/10Z 29/11Z 29/12Z 29/13Z 29/14Z 29/15Z 29/16Z 29/17Z 29/18Z 29/19Z 29/20Z
Type OBS PRVL
  [TEMP]  
PRVL
  [TEMP]  
PRVL PRVL PRVL PRVL PRVL PRVL PRVL PRVL PRVL PRVL PRVL
VIS 10 >6
  [6]  
>6
  [6]  
>6 >6 >6 >6 >6 >6 >6 >6 >6 >6 >6
CIG 80 80
  [40]  
80
  [40]  
80 80 80 80 80 80 80 80 80 80 80
Cover OVC BKN
  [BKN]  
BKN
  [BKN]  
BKN BKN BKN BKN BKN BKN BKN BKN BKN BKN BKN
FltCat VFR VFR
  [VFR]  
VFR
  [VFR]  
VFR VFR VFR VFR VFR VFR VFR VFR VFR VFR VFR
WX -- VCTS
  [-TSRA]  
VCTS
  [-TSRA]  
-- -- -- -- -- -- -- -- -- -- --
WDir 350 300
[300]
300
[300]
360 360 360 360 360 360 360 360 360 360 360
WSpd 14 9
  [9]  
9
  [9]  
8 8 8 8 8 8 8 8 8 8 8
WGst 18 --
  [--]  
--
  [--]  
-- -- -- -- -- -- -- -- -- -- --
R01/19
XWnd 5 9 9 2 2 2 2 2 2 2 2 2 2 2
XGst 7 0 0 -- -- -- -- -- -- -- -- -- -- --
HWnd 13 3 3 8 8 8 8 8 8 8 8 8 8 8
HGst 17 0 0 -- -- -- -- -- -- -- -- -- -- --
R09/27
XWnd 13 4 4 8 8 8 8 8 8 8 8 8 8 8
XGst 17 0 0 -- -- -- -- -- -- -- -- -- -- --
HWnd -4 -8 -8 -1 -1 -1 -1 -1 -1 -1 -1 -1 -1 -1
HGst -5 0 0 -- -- -- -- -- -- -- -- -- -- --

NOTE: TEMPO conditions in [brackets]. Keep in mind TEMPO conditions might be better (lower impact) than prevailing conditions.

Raw TAF
KMCI 290520Z 2906/3006 19011KT P6SM FEW070 SCT250
  FM290700 30009KT P6SM VCTS SCT040CB BKN080
  TEMPO 2907/2910 6SM -TSRA BKN040CB
  FM291000 36008KT P6SM SCT050 BKN080


Raw METAR
KMCI 290653Z 35014G18KT 10SM FEW012 SCT021 OVC080 27/24 A2999 RMK AO2 LTG DSNT NW-E SLP141 T02670244
KMCI 290553Z 29006KT 10SM BKN049 OVC060 28/23 A2997 RMK AO2 LTG DSNT N AND NW SLP135 T02830228 10322 20278 403440239 53020
KMCI 290453Z 21008KT 10SM BKN070 OVC130 29/22 A2994 RMK AO2 SLP124 OCNL LTGICCC DSNT N T02890222

METAR Board
Radar Display
Forecast Discussion

TAF Board Legend

Potential Impact
Threat None Slight Moderate High
Visibility (sm) ≥5.1 5.1>X≥3 3>X≥1 <1
Ceiling (100 ft) ≥30.1 30.1>X≥10 10>X≥5 <5
Wind Speed (kt) <10 10≤X<20 20≤X<30 ≥30
Wind Gust (kt) <15 15≤X<25 25≤X<35 ≥35
Weather No Wx Reported VCTS,-TS,-FZRA,SN TS,FZRA +TS,+FZRA,+SN